sensor_id;sensor_type;location;lat;lon;timestamp;P1;durP1;ratioP1;P2;durP2;ratioP2
5303;SDS011;2674;49.722;10.892;2022-08-30T00:01:56;6.23;;;3.53;;
5303;SDS011;2674;49.722;10.892;2022-08-30T00:04:22;6.63;;;3.70;;
5303;SDS011;2674;49.722;10.892;2022-08-30T00:06:48;7.10;;;3.80;;
5303;SDS011;2674;49.722;10.892;2022-08-30T00:09:14;7.70;;;4.60;;
5303;SDS011;2674;49.722;10.892;2022-08-30T00:11:40;6.00;;;4.60;;
5303;SDS011;2674;49.722;10.892;2022-08-30T00:14:06;5.10;;;4.40;;
5303;SDS011;2674;49.722;10.892;2022-08-30T00:16:32;10.90;;;4.57;;
5303;SDS011;2674;49.722;10.892;2022-08-30T00:18:58;8.67;;;4.47;;
5303;SDS011;2674;49.722;10.892;2022-08-30T00:21:25;5.63;;;4.23;;
5303;SDS011;2674;49.722;10.892;2022-08-30T00:23:51;5.80;;;5.20;;
5303;SDS011;2674;49.722;10.892;2022-08-30T00:26:18;7.30;;;4.67;;
5303;SDS011;2674;49.722;10.892;2022-08-30T00:28:47;10.13;;;4.70;;
5303;SDS011;2674;49.722;10.892;2022-08-30T00:31:13;9.90;;;5.57;;
5303;SDS011;2674;49.722;10.892;2022-08-30T00:33:39;5.67;;;4.20;;
5303;SDS011;2674;49.722;10.892;2022-08-30T00:36:05;8.80;;;5.27;;
5303;SDS011;2674;49.722;10.892;2022-08-30T00:38:31;8.77;;;4.90;;
5303;SDS011;2674;49.722;10.892;2022-08-30T00:40:57;7.23;;;5.10;;
5303;SDS011;2674;49.722;10.892;2022-08-30T00:43:27;11.63;;;5.80;;
5303;SDS011;2674;49.722;10.892;2022-08-30T00:45:55;11.23;;;5.20;;
5303;SDS011;2674;49.722;10.892;2022-08-30T00:48:22;7.13;;;4.93;;
5303;SDS011;2674;49.722;10.892;2022-08-30T00:50:51;6.93;;;4.57;;
5303;SDS011;2674;49.722;10.892;2022-08-30T00:53:25;7.37;;;4.97;;
5303;SDS011;2674;49.722;10.892;2022-08-30T00:55:56;9.30;;;5.37;;
5303;SDS011;2674;49.722;10.892;2022-08-30T00:58:24;7.73;;;5.20;;
5303;SDS011;2674;49.722;10.892;2022-08-30T01:00:54;9.40;;;5.47;;
5303;SDS011;2674;49.722;10.892;2022-08-30T01:03:22;15.13;;;5.70;;
5303;SDS011;2674;49.722;10.892;2022-08-30T01:05:49;8.60;;;5.07;;
5303;SDS011;2674;49.722;10.892;2022-08-30T01:08:16;9.67;;;5.20;;
5303;SDS011;2674;49.722;10.892;2022-08-30T01:10:43;8.33;;;4.37;;
5303;SDS011;2674;49.722;10.892;2022-08-30T01:13:09;8.37;;;5.30;;
5303;SDS011;2674;49.722;10.892;2022-08-30T01:15:38;7.27;;;4.80;;
5303;SDS011;2674;49.722;10.892;2022-08-30T01:18:05;14.07;;;4.83;;
5303;SDS011;2674;49.722;10.892;2022-08-30T01:20:37;9.30;;;4.73;;
5303;SDS011;2674;49.722;10.892;2022-08-30T01:23:25;6.83;;;4.53;;
5303;SDS011;2674;49.722;10.892;2022-08-30T01:25:52;8.00;;;5.13;;
5303;SDS011;2674;49.722;10.892;2022-08-30T01:28:20;13.37;;;4.77;;
5303;SDS011;2674;49.722;10.892;2022-08-30T01:30:48;7.90;;;4.83;;
5303;SDS011;2674;49.722;10.892;2022-08-30T01:33:14;6.23;;;5.37;;
5303;SDS011;2674;49.722;10.892;2022-08-30T01:38:12;4.77;;;4.10;;
5303;SDS011;2674;49.722;10.892;2022-08-30T01:40:41;4.97;;;4.47;;
5303;SDS011;2674;49.722;10.892;2022-08-30T01:43:07;9.67;;;5.33;;
5303;SDS011;2674;49.722;10.892;2022-08-30T01:45:36;8.63;;;4.40;;
5303;SDS011;2674;49.722;10.892;2022-08-30T01:48:02;10.20;;;4.87;;
5303;SDS011;2674;49.722;10.892;2022-08-30T01:50:28;7.33;;;4.67;;
5303;SDS011;2674;49.722;10.892;2022-08-30T01:52:54;13.70;;;4.30;;
5303;SDS011;2674;49.722;10.892;2022-08-30T01:55:20;16.00;;;4.63;;
5303;SDS011;2674;49.722;10.892;2022-08-30T01:57:46;6.93;;;4.30;;
5303;SDS011;2674;49.722;10.892;2022-08-30T02:00:14;8.73;;;6.10;;
5303;SDS011;2674;49.722;10.892;2022-08-30T02:02:41;6.70;;;4.03;;
5303;SDS011;2674;49.722;10.892;2022-08-30T02:05:08;5.07;;;4.40;;
5303;SDS011;2674;49.722;10.892;2022-08-30T02:07:35;5.93;;;4.10;;
5303;SDS011;2674;49.722;10.892;2022-08-30T02:10:00;10.20;;;4.70;;
5303;SDS011;2674;49.722;10.892;2022-08-30T02:12:26;8.60;;;4.40;;
5303;SDS011;2674;49.722;10.892;2022-08-30T02:14:54;10.80;;;4.60;;
5303;SDS011;2674;49.722;10.892;2022-08-30T02:17:20;6.80;;;4.47;;
5303;SDS011;2674;49.722;10.892;2022-08-30T02:19:46;12.07;;;5.70;;
5303;SDS011;2674;49.722;10.892;2022-08-30T02:22:12;6.00;;;4.70;;
5303;SDS011;2674;49.722;10.892;2022-08-30T02:24:38;6.23;;;4.80;;
5303;SDS011;2674;49.722;10.892;2022-08-30T02:27:04;5.27;;;4.77;;
5303;SDS011;2674;49.722;10.892;2022-08-30T02:29:31;11.50;;;5.13;;
5303;SDS011;2674;49.722;10.892;2022-08-30T02:31:57;7.57;;;4.97;;
5303;SDS011;2674;49.722;10.892;2022-08-30T02:34:23;5.57;;;5.03;;
5303;SDS011;2674;49.722;10.892;2022-08-30T02:36:49;10.27;;;4.90;;
5303;SDS011;2674;49.722;10.892;2022-08-30T02:39:15;5.97;;;4.80;;
5303;SDS011;2674;49.722;10.892;2022-08-30T02:41:41;5.80;;;5.00;;
5303;SDS011;2674;49.722;10.892;2022-08-30T02:44:07;8.93;;;5.90;;
5303;SDS011;2674;49.722;10.892;2022-08-30T02:46:35;7.10;;;5.20;;
5303;SDS011;2674;49.722;10.892;2022-08-30T02:49:03;6.90;;;4.30;;
5303;SDS011;2674;49.722;10.892;2022-08-30T02:51:29;8.73;;;6.20;;
5303;SDS011;2674;49.722;10.892;2022-08-30T02:53:55;9.90;;;5.30;;
5303;SDS011;2674;49.722;10.892;2022-08-30T02:56:21;10.50;;;5.60;;
5303;SDS011;2674;49.722;10.892;2022-08-30T02:58:47;7.00;;;5.53;;
5303;SDS011;2674;49.722;10.892;2022-08-30T03:01:13;7.60;;;5.60;;
5303;SDS011;2674;49.722;10.892;2022-08-30T03:03:40;11.13;;;5.27;;
5303;SDS011;2674;49.722;10.892;2022-08-30T03:06:07;10.00;;;5.63;;
5303;SDS011;2674;49.722;10.892;2022-08-30T03:08:34;11.17;;;6.40;;
5303;SDS011;2674;49.722;10.892;2022-08-30T03:11:01;10.60;;;6.97;;
5303;SDS011;2674;49.722;10.892;2022-08-30T03:13:28;10.50;;;6.27;;
5303;SDS011;2674;49.722;10.892;2022-08-30T03:15:54;9.87;;;6.30;;
5303;SDS011;2674;49.722;10.892;2022-08-30T03:18:20;8.90;;;6.50;;
5303;SDS011;2674;49.722;10.892;2022-08-30T03:20:47;12.00;;;6.47;;
5303;SDS011;2674;49.722;10.892;2022-08-30T03:23:14;13.77;;;7.37;;
5303;SDS011;2674;49.722;10.892;2022-08-30T03:25:41;7.67;;;6.40;;
5303;SDS011;2674;49.722;10.892;2022-08-30T03:28:07;9.37;;;7.47;;
5303;SDS011;2674;49.722;10.892;2022-08-30T03:30:33;15.47;;;7.60;;
5303;SDS011;2674;49.722;10.892;2022-08-30T03:33:00;7.97;;;4.83;;
5303;SDS011;2674;49.722;10.892;2022-08-30T03:35:26;9.50;;;5.20;;
5303;SDS011;2674;49.722;10.892;2022-08-30T03:37:52;8.40;;;5.37;;
5303;SDS011;2674;49.722;10.892;2022-08-30T03:40:19;8.20;;;5.33;;
5303;SDS011;2674;49.722;10.892;2022-08-30T03:42:46;11.43;;;5.63;;
5303;SDS011;2674;49.722;10.892;2022-08-30T03:45:14;10.40;;;4.90;;
5303;SDS011;2674;49.722;10.892;2022-08-30T03:47:41;11.33;;;6.43;;
5303;SDS011;2674;49.722;10.892;2022-08-30T03:50:08;7.93;;;6.10;;
5303;SDS011;2674;49.722;10.892;2022-08-30T03:52:35;7.90;;;5.63;;
5303;SDS011;2674;49.722;10.892;2022-08-30T03:55:00;10.20;;;5.37;;
5303;SDS011;2674;49.722;10.892;2022-08-30T03:57:30;9.57;;;4.70;;
5303;SDS011;2674;49.722;10.892;2022-08-30T03:59:56;8.80;;;5.00;;
5303;SDS011;2674;49.722;10.892;2022-08-30T04:02:22;8.20;;;5.13;;
5303;SDS011;2674;49.722;10.892;2022-08-30T04:04:48;6.30;;;4.60;;
5303;SDS011;2674;49.722;10.892;2022-08-30T04:07:14;16.70;;;5.17;;
5303;SDS011;2674;49.722;10.892;2022-08-30T04:09:40;8.40;;;5.40;;
5303;SDS011;2674;49.722;10.892;2022-08-30T04:12:06;7.47;;;4.90;;
5303;SDS011;2674;49.722;10.892;2022-08-30T04:14:33;8.90;;;5.27;;
5303;SDS011;2674;49.722;10.892;2022-08-30T04:16:59;7.60;;;4.83;;
5303;SDS011;2674;49.722;10.892;2022-08-30T04:19:25;8.90;;;5.30;;
5303;SDS011;2674;49.722;10.892;2022-08-30T04:21:50;8.30;;;5.10;;
5303;SDS011;2674;49.722;10.892;2022-08-30T04:24:16;7.10;;;5.30;;
5303;SDS011;2674;49.722;10.892;2022-08-30T04:26:42;5.60;;;4.73;;
5303;SDS011;2674;49.722;10.892;2022-08-30T04:29:08;9.20;;;4.60;;
5303;SDS011;2674;49.722;10.892;2022-08-30T04:31:36;6.80;;;4.97;;
5303;SDS011;2674;49.722;10.892;2022-08-30T04:34:02;5.63;;;4.67;;
5303;SDS011;2674;49.722;10.892;2022-08-30T04:36:28;12.37;;;5.50;;
5303;SDS011;2674;49.722;10.892;2022-08-30T04:38:54;7.93;;;6.23;;
5303;SDS011;2674;49.722;10.892;2022-08-30T04:41:19;9.37;;;5.73;;
5303;SDS011;2674;49.722;10.892;2022-08-30T04:43:48;8.33;;;5.50;;
5303;SDS011;2674;49.722;10.892;2022-08-30T04:46:15;9.00;;;5.80;;
5303;SDS011;2674;49.722;10.892;2022-08-30T04:48:45;4.83;;;4.43;;
5303;SDS011;2674;49.722;10.892;2022-08-30T04:51:12;8.77;;;5.17;;
5303;SDS011;2674;49.722;10.892;2022-08-30T04:53:41;10.07;;;5.57;;
5303;SDS011;2674;49.722;10.892;2022-08-30T04:56:08;7.80;;;6.20;;
5303;SDS011;2674;49.722;10.892;2022-08-30T04:58:40;8.70;;;6.03;;
5303;SDS011;2674;49.722;10.892;2022-08-30T05:01:14;8.77;;;5.47;;
5303;SDS011;2674;49.722;10.892;2022-08-30T05:03:42;6.67;;;4.80;;
5303;SDS011;2674;49.722;10.892;2022-08-30T05:06:11;10.83;;;5.70;;
5303;SDS011;2674;49.722;10.892;2022-08-30T05:08:38;7.30;;;5.67;;
5303;SDS011;2674;49.722;10.892;2022-08-30T05:11:04;7.63;;;5.50;;
5303;SDS011;2674;49.722;10.892;2022-08-30T05:13:32;8.87;;;5.73;;
5303;SDS011;2674;49.722;10.892;2022-08-30T05:15:58;12.23;;;6.07;;
5303;SDS011;2674;49.722;10.892;2022-08-30T05:18:24;7.30;;;5.73;;
5303;SDS011;2674;49.722;10.892;2022-08-30T05:21:01;6.30;;;5.70;;
5303;SDS011;2674;49.722;10.892;2022-08-30T05:23:31;8.70;;;5.97;;
5303;SDS011;2674;49.722;10.892;2022-08-30T05:25:57;10.63;;;6.17;;
5303;SDS011;2674;49.722;10.892;2022-08-30T05:28:23;19.33;;;8.03;;
5303;SDS011;2674;49.722;10.892;2022-08-30T05:30:49;6.87;;;5.97;;
5303;SDS011;2674;49.722;10.892;2022-08-30T05:33:14;8.47;;;6.00;;
5303;SDS011;2674;49.722;10.892;2022-08-30T05:35:40;6.73;;;5.70;;
5303;SDS011;2674;49.722;10.892;2022-08-30T05:38:09;7.40;;;6.10;;
5303;SDS011;2674;49.722;10.892;2022-08-30T05:40:38;7.80;;;5.43;;
5303;SDS011;2674;49.722;10.892;2022-08-30T05:43:05;8.23;;;6.10;;
5303;SDS011;2674;49.722;10.892;2022-08-30T05:45:31;9.77;;;5.77;;
5303;SDS011;2674;49.722;10.892;2022-08-30T05:47:57;13.20;;;6.23;;
5303;SDS011;2674;49.722;10.892;2022-08-30T05:50:23;8.80;;;5.80;;
5303;SDS011;2674;49.722;10.892;2022-08-30T05:52:48;7.57;;;6.10;;
5303;SDS011;2674;49.722;10.892;2022-08-30T05:55:14;8.67;;;6.23;;
5303;SDS011;2674;49.722;10.892;2022-08-30T05:57:42;9.10;;;5.93;;
5303;SDS011;2674;49.722;10.892;2022-08-30T06:00:11;7.40;;;5.27;;
5303;SDS011;2674;49.722;10.892;2022-08-30T06:02:39;17.73;;;5.57;;
5303;SDS011;2674;49.722;10.892;2022-08-30T06:05:06;7.87;;;5.90;;
5303;SDS011;2674;49.722;10.892;2022-08-30T06:07:32;7.37;;;5.73;;
5303;SDS011;2674;49.722;10.892;2022-08-30T06:09:59;7.43;;;5.20;;
5303;SDS011;2674;49.722;10.892;2022-08-30T06:12:25;11.60;;;6.63;;
5303;SDS011;2674;49.722;10.892;2022-08-30T06:14:51;8.53;;;6.13;;
5303;SDS011;2674;49.722;10.892;2022-08-30T06:17:17;14.50;;;7.03;;
5303;SDS011;2674;49.722;10.892;2022-08-30T06:19:43;7.37;;;5.40;;
5303;SDS011;2674;49.722;10.892;2022-08-30T06:22:09;13.00;;;6.50;;
5303;SDS011;2674;49.722;10.892;2022-08-30T06:24:35;6.40;;;5.73;;
5303;SDS011;2674;49.722;10.892;2022-08-30T06:27:01;7.53;;;5.23;;
5303;SDS011;2674;49.722;10.892;2022-08-30T06:29:27;9.03;;;6.40;;
5303;SDS011;2674;49.722;10.892;2022-08-30T06:31:53;7.57;;;5.00;;
5303;SDS011;2674;49.722;10.892;2022-08-30T06:34:21;9.27;;;5.10;;
5303;SDS011;2674;49.722;10.892;2022-08-30T06:36:47;10.37;;;5.40;;
5303;SDS011;2674;49.722;10.892;2022-08-30T06:39:13;8.70;;;5.30;;
5303;SDS011;2674;49.722;10.892;2022-08-30T06:41:40;6.53;;;5.93;;
5303;SDS011;2674;49.722;10.892;2022-08-30T06:44:07;8.57;;;5.10;;
5303;SDS011;2674;49.722;10.892;2022-08-30T06:46:34;11.93;;;5.40;;
5303;SDS011;2674;49.722;10.892;2022-08-30T06:49:02;8.37;;;5.57;;
5303;SDS011;2674;49.722;10.892;2022-08-30T06:51:31;7.00;;;5.20;;
5303;SDS011;2674;49.722;10.892;2022-08-30T06:53:59;6.63;;;3.93;;
5303;SDS011;2674;49.722;10.892;2022-08-30T06:56:26;5.77;;;4.40;;
5303;SDS011;2674;49.722;10.892;2022-08-30T06:58:52;9.30;;;5.97;;
5303;SDS011;2674;49.722;10.892;2022-08-30T07:01:20;9.70;;;5.27;;
5303;SDS011;2674;49.722;10.892;2022-08-30T07:03:48;9.07;;;5.20;;
5303;SDS011;2674;49.722;10.892;2022-08-30T07:06:14;4.83;;;4.33;;
5303;SDS011;2674;49.722;10.892;2022-08-30T07:08:41;9.53;;;5.43;;
5303;SDS011;2674;49.722;10.892;2022-08-30T07:11:07;9.33;;;4.73;;
5303;SDS011;2674;49.722;10.892;2022-08-30T07:13:34;9.63;;;5.20;;
5303;SDS011;2674;49.722;10.892;2022-08-30T07:16:00;11.27;;;5.83;;
5303;SDS011;2674;49.722;10.892;2022-08-30T07:18:32;7.50;;;5.27;;
5303;SDS011;2674;49.722;10.892;2022-08-30T07:21:27;6.20;;;5.10;;
5303;SDS011;2674;49.722;10.892;2022-08-30T07:23:56;8.03;;;4.70;;
5303;SDS011;2674;49.722;10.892;2022-08-30T07:26:25;8.47;;;4.40;;
5303;SDS011;2674;49.722;10.892;2022-08-30T07:28:59;10.03;;;4.97;;
5303;SDS011;2674;49.722;10.892;2022-08-30T07:31:26;4.20;;;3.80;;
5303;SDS011;2674;49.722;10.892;2022-08-30T07:33:53;7.70;;;4.37;;
5303;SDS011;2674;49.722;10.892;2022-08-30T07:36:19;10.13;;;4.57;;
5303;SDS011;2674;49.722;10.892;2022-08-30T07:38:46;12.33;;;4.97;;
5303;SDS011;2674;49.722;10.892;2022-08-30T07:41:28;7.90;;;4.77;;
5303;SDS011;2674;49.722;10.892;2022-08-30T07:43:58;10.10;;;4.13;;
5303;SDS011;2674;49.722;10.892;2022-08-30T07:46:24;6.40;;;3.97;;
5303;SDS011;2674;49.722;10.892;2022-08-30T07:48:52;8.90;;;4.37;;
5303;SDS011;2674;49.722;10.892;2022-08-30T07:51:23;8.33;;;4.17;;
5303;SDS011;2674;49.722;10.892;2022-08-30T07:53:50;10.10;;;4.93;;
5303;SDS011;2674;49.722;10.892;2022-08-30T07:56:17;8.70;;;4.43;;
5303;SDS011;2674;49.722;10.892;2022-08-30T07:58:43;7.77;;;4.40;;
5303;SDS011;2674;49.722;10.892;2022-08-30T08:01:10;10.30;;;4.70;;
5303;SDS011;2674;49.722;10.892;2022-08-30T08:03:37;6.80;;;4.90;;
5303;SDS011;2674;49.722;10.892;2022-08-30T08:06:04;9.90;;;3.93;;
5303;SDS011;2674;49.722;10.892;2022-08-30T08:08:31;9.47;;;3.97;;
5303;SDS011;2674;49.722;10.892;2022-08-30T08:11:04;5.97;;;4.17;;
5303;SDS011;2674;49.722;10.892;2022-08-30T08:26:17;9.80;;;4.10;;
5303;SDS011;2674;49.722;10.892;2022-08-30T08:28:43;6.77;;;3.77;;
5303;SDS011;2674;49.722;10.892;2022-08-30T08:31:18;12.00;;;4.23;;
5303;SDS011;2674;49.722;10.892;2022-08-30T08:33:46;12.30;;;4.70;;
5303;SDS011;2674;49.722;10.892;2022-08-30T08:36:12;6.30;;;4.03;;
5303;SDS011;2674;49.722;10.892;2022-08-30T08:38:39;7.57;;;3.93;;
5303;SDS011;2674;49.722;10.892;2022-08-30T08:44:11;13.10;;;3.90;;
5303;SDS011;2674;49.722;10.892;2022-08-30T08:49:20;13.53;;;5.20;;
5303;SDS011;2674;49.722;10.892;2022-08-30T08:51:46;8.37;;;4.03;;
5303;SDS011;2674;49.722;10.892;2022-08-30T08:54:41;6.90;;;4.63;;
5303;SDS011;2674;49.722;10.892;2022-08-30T08:57:35;6.40;;;4.90;;
5303;SDS011;2674;49.722;10.892;2022-08-30T09:00:05;7.70;;;4.43;;
5303;SDS011;2674;49.722;10.892;2022-08-30T09:02:44;5.97;;;4.17;;
5303;SDS011;2674;49.722;10.892;2022-08-30T09:05:14;5.80;;;3.80;;
5303;SDS011;2674;49.722;10.892;2022-08-30T09:07:48;10.40;;;4.00;;
5303;SDS011;2674;49.722;10.892;2022-08-30T09:10:19;9.27;;;4.30;;
5303;SDS011;2674;49.722;10.892;2022-08-30T09:12:46;9.17;;;3.93;;
5303;SDS011;2674;49.722;10.892;2022-08-30T09:15:23;6.63;;;3.70;;
5303;SDS011;2674;49.722;10.892;2022-08-30T09:17:54;9.47;;;3.80;;
5303;SDS011;2674;49.722;10.892;2022-08-30T09:20:23;13.30;;;4.30;;
5303;SDS011;2674;49.722;10.892;2022-08-30T09:22:55;7.80;;;3.70;;
5303;SDS011;2674;49.722;10.892;2022-08-30T09:25:26;6.27;;;3.97;;
5303;SDS011;2674;49.722;10.892;2022-08-30T09:28:07;8.70;;;4.10;;
5303;SDS011;2674;49.722;10.892;2022-08-30T09:30:38;6.07;;;4.63;;
5303;SDS011;2674;49.722;10.892;2022-08-30T09:33:05;7.93;;;4.20;;
5303;SDS011;2674;49.722;10.892;2022-08-30T09:35:46;7.80;;;4.23;;
5303;SDS011;2674;49.722;10.892;2022-08-30T09:38:28;9.33;;;4.03;;
5303;SDS011;2674;49.722;10.892;2022-08-30T09:41:00;5.93;;;4.27;;
5303;SDS011;2674;49.722;10.892;2022-08-30T09:43:46;6.47;;;3.57;;
5303;SDS011;2674;49.722;10.892;2022-08-30T09:46:29;5.80;;;3.40;;
5303;SDS011;2674;49.722;10.892;2022-08-30T09:48:55;11.43;;;3.73;;
5303;SDS011;2674;49.722;10.892;2022-08-30T09:51:34;6.00;;;3.57;;
5303;SDS011;2674;49.722;10.892;2022-08-30T09:54:24;9.63;;;3.60;;
5303;SDS011;2674;49.722;10.892;2022-08-30T10:10:58;8.10;;;4.03;;
5303;SDS011;2674;49.722;10.892;2022-08-30T10:13:35;5.53;;;3.30;;
5303;SDS011;2674;49.722;10.892;2022-08-30T10:19:37;6.60;;;2.80;;
5303;SDS011;2674;49.722;10.892;2022-08-30T10:21:53;6.03;;;3.40;;
5303;SDS011;2674;49.722;10.892;2022-08-30T10:24:33;3.90;;;3.10;;
5303;SDS011;2674;49.722;10.892;2022-08-30T10:27:11;5.07;;;2.50;;
5303;SDS011;2674;49.722;10.892;2022-08-30T10:35:23;5.40;;;3.30;;
5303;SDS011;2674;49.722;10.892;2022-08-30T10:40:31;6.77;;;3.50;;
5303;SDS011;2674;49.722;10.892;2022-08-30T10:43:26;4.20;;;3.53;;
5303;SDS011;2674;49.722;10.892;2022-08-30T10:46:38;5.33;;;3.20;;
5303;SDS011;2674;49.722;10.892;2022-08-30T10:49:25;5.33;;;3.13;;
5303;SDS011;2674;49.722;10.892;2022-08-30T10:55:07;3.50;;;3.20;;
5303;SDS011;2674;49.722;10.892;2022-08-30T10:57:35;7.30;;;3.40;;
5303;SDS011;2674;49.722;10.892;2022-08-30T11:00:07;4.77;;;3.60;;
5303;SDS011;2674;49.722;10.892;2022-08-30T11:08:28;10.00;;;4.17;;
5303;SDS011;2674;49.722;10.892;2022-08-30T11:13:38;4.70;;;3.20;;
5303;SDS011;2674;49.722;10.892;2022-08-30T11:18:50;5.60;;;3.20;;
5303;SDS011;2674;49.722;10.892;2022-08-30T11:24:14;9.60;;;3.70;;
5303;SDS011;2674;49.722;10.892;2022-08-30T11:40:05;4.43;;;3.07;;
5303;SDS011;2674;49.722;10.892;2022-08-30T11:42:37;5.80;;;3.33;;
5303;SDS011;2674;49.722;10.892;2022-08-30T11:55:52;3.60;;;3.17;;
5303;SDS011;2674;49.722;10.892;2022-08-30T11:58:14;5.10;;;3.23;;
5303;SDS011;2674;49.722;10.892;2022-08-30T12:01:16;6.63;;;3.03;;
5303;SDS011;2674;49.722;10.892;2022-08-30T12:09:06;4.83;;;3.17;;
5303;SDS011;2674;49.722;10.892;2022-08-30T12:14:01;4.60;;;3.30;;
5303;SDS011;2674;49.722;10.892;2022-08-30T12:16:42;5.17;;;3.70;;
5303;SDS011;2674;49.722;10.892;2022-08-30T12:19:31;5.07;;;3.20;;
5303;SDS011;2674;49.722;10.892;2022-08-30T12:22:02;4.70;;;3.80;;
5303;SDS011;2674;49.722;10.892;2022-08-30T12:24:33;5.10;;;3.50;;
5303;SDS011;2674;49.722;10.892;2022-08-30T12:30:06;5.30;;;3.33;;
5303;SDS011;2674;49.722;10.892;2022-08-30T12:32:36;3.90;;;3.23;;
5303;SDS011;2674;49.722;10.892;2022-08-30T12:35:27;4.70;;;3.20;;
5303;SDS011;2674;49.722;10.892;2022-08-30T12:37:55;4.83;;;3.30;;
5303;SDS011;2674;49.722;10.892;2022-08-30T12:40:26;5.53;;;3.40;;
5303;SDS011;2674;49.722;10.892;2022-08-30T12:42:59;3.37;;;2.97;;
5303;SDS011;2674;49.722;10.892;2022-08-30T12:45:46;3.63;;;3.00;;
5303;SDS011;2674;49.722;10.892;2022-08-30T12:48:15;6.87;;;3.30;;
5303;SDS011;2674;49.722;10.892;2022-08-30T12:53:10;5.70;;;3.20;;
5303;SDS011;2674;49.722;10.892;2022-08-30T12:58:42;4.20;;;3.07;;
5303;SDS011;2674;49.722;10.892;2022-08-30T13:01:17;6.60;;;3.07;;
5303;SDS011;2674;49.722;10.892;2022-08-30T13:04:09;4.43;;;3.30;;
5303;SDS011;2674;49.722;10.892;2022-08-30T13:06:59;4.13;;;2.70;;
5303;SDS011;2674;49.722;10.892;2022-08-30T13:09:26;4.77;;;2.90;;
5303;SDS011;2674;49.722;10.892;2022-08-30T13:12:02;5.83;;;3.23;;
5303;SDS011;2674;49.722;10.892;2022-08-30T13:14:41;8.53;;;3.00;;
5303;SDS011;2674;49.722;10.892;2022-08-30T13:17:24;3.50;;;2.97;;
5303;SDS011;2674;49.722;10.892;2022-08-30T13:22:58;5.43;;;2.43;;
5303;SDS011;2674;49.722;10.892;2022-08-30T13:25:33;6.43;;;3.07;;
5303;SDS011;2674;49.722;10.892;2022-08-30T13:28:00;3.40;;;3.10;;
5303;SDS011;2674;49.722;10.892;2022-08-30T13:30:27;4.70;;;3.90;;
5303;SDS011;2674;49.722;10.892;2022-08-30T13:32:54;4.30;;;2.87;;
5303;SDS011;2674;49.722;10.892;2022-08-30T13:35:20;3.40;;;3.10;;
5303;SDS011;2674;49.722;10.892;2022-08-30T13:37:46;3.30;;;3.00;;
5303;SDS011;2674;49.722;10.892;2022-08-30T13:40:13;5.70;;;3.00;;
5303;SDS011;2674;49.722;10.892;2022-08-30T13:42:41;5.33;;;2.80;;
5303;SDS011;2674;49.722;10.892;2022-08-30T13:45:09;3.20;;;2.90;;
5303;SDS011;2674;49.722;10.892;2022-08-30T13:47:36;4.50;;;2.90;;
5303;SDS011;2674;49.722;10.892;2022-08-30T13:50:03;5.13;;;2.80;;
5303;SDS011;2674;49.722;10.892;2022-08-30T13:52:30;3.80;;;2.70;;
5303;SDS011;2674;49.722;10.892;2022-08-30T13:54:56;5.77;;;3.30;;
5303;SDS011;2674;49.722;10.892;2022-08-30T13:57:25;6.13;;;3.30;;
5303;SDS011;2674;49.722;10.892;2022-08-30T13:59:53;4.70;;;3.17;;
5303;SDS011;2674;49.722;10.892;2022-08-30T14:02:19;3.27;;;2.97;;
5303;SDS011;2674;49.722;10.892;2022-08-30T14:04:45;7.03;;;2.77;;
5303;SDS011;2674;49.722;10.892;2022-08-30T14:07:11;3.53;;;3.00;;
5303;SDS011;2674;49.722;10.892;2022-08-30T14:09:37;6.60;;;2.80;;
5303;SDS011;2674;49.722;10.892;2022-08-30T14:12:03;2.83;;;2.33;;
5303;SDS011;2674;49.722;10.892;2022-08-30T14:14:29;4.30;;;2.87;;
5303;SDS011;2674;49.722;10.892;2022-08-30T14:16:55;4.97;;;3.30;;
5303;SDS011;2674;49.722;10.892;2022-08-30T14:19:21;12.70;;;3.43;;
5303;SDS011;2674;49.722;10.892;2022-08-30T14:21:47;4.10;;;2.67;;
5303;SDS011;2674;49.722;10.892;2022-08-30T14:24:13;5.37;;;2.50;;
5303;SDS011;2674;49.722;10.892;2022-08-30T14:26:46;3.53;;;2.40;;
5303;SDS011;2674;49.722;10.892;2022-08-30T14:29:16;7.43;;;2.67;;
5303;SDS011;2674;49.722;10.892;2022-08-30T14:31:50;2.23;;;2.00;;
5303;SDS011;2674;49.722;10.892;2022-08-30T14:34:16;2.67;;;2.47;;
5303;SDS011;2674;49.722;10.892;2022-08-30T14:36:43;4.50;;;2.43;;
5303;SDS011;2674;49.722;10.892;2022-08-30T14:39:11;3.30;;;2.80;;
5303;SDS011;2674;49.722;10.892;2022-08-30T14:41:40;3.83;;;3.07;;
5303;SDS011;2674;49.722;10.892;2022-08-30T14:44:09;5.97;;;2.83;;
5303;SDS011;2674;49.722;10.892;2022-08-30T14:46:35;5.20;;;3.20;;
5303;SDS011;2674;49.722;10.892;2022-08-30T14:49:01;4.80;;;2.83;;
5303;SDS011;2674;49.722;10.892;2022-08-30T14:51:27;4.67;;;2.70;;
5303;SDS011;2674;49.722;10.892;2022-08-30T14:53:53;4.23;;;2.70;;
5303;SDS011;2674;49.722;10.892;2022-08-30T14:56:20;4.47;;;2.77;;
5303;SDS011;2674;49.722;10.892;2022-08-30T14:58:47;2.77;;;2.50;;
5303;SDS011;2674;49.722;10.892;2022-08-30T15:01:15;4.30;;;2.73;;
5303;SDS011;2674;49.722;10.892;2022-08-30T15:03:42;2.90;;;2.70;;
5303;SDS011;2674;49.722;10.892;2022-08-30T15:06:08;5.13;;;3.57;;
5303;SDS011;2674;49.722;10.892;2022-08-30T15:08:35;3.83;;;2.90;;
5303;SDS011;2674;49.722;10.892;2022-08-30T15:11:08;7.70;;;2.80;;
5303;SDS011;2674;49.722;10.892;2022-08-30T15:13:36;2.87;;;2.60;;
5303;SDS011;2674;49.722;10.892;2022-08-30T15:16:09;5.43;;;2.67;;
5303;SDS011;2674;49.722;10.892;2022-08-30T15:18:37;3.37;;;2.80;;
5303;SDS011;2674;49.722;10.892;2022-08-30T15:21:03;6.40;;;3.00;;
5303;SDS011;2674;49.722;10.892;2022-08-30T15:23:29;3.40;;;2.83;;
5303;SDS011;2674;49.722;10.892;2022-08-30T15:25:55;3.17;;;2.50;;
5303;SDS011;2674;49.722;10.892;2022-08-30T15:28:21;3.77;;;2.80;;
5303;SDS011;2674;49.722;10.892;2022-08-30T15:30:47;3.33;;;3.00;;
5303;SDS011;2674;49.722;10.892;2022-08-30T15:33:13;4.80;;;2.80;;
5303;SDS011;2674;49.722;10.892;2022-08-30T15:35:38;3.53;;;2.80;;
5303;SDS011;2674;49.722;10.892;2022-08-30T15:38:04;4.60;;;3.07;;
5303;SDS011;2674;49.722;10.892;2022-08-30T15:40:31;4.97;;;3.40;;
5303;SDS011;2674;49.722;10.892;2022-08-30T15:42:57;3.07;;;2.77;;
5303;SDS011;2674;49.722;10.892;2022-08-30T15:45:23;3.40;;;2.50;;
5303;SDS011;2674;49.722;10.892;2022-08-30T15:47:49;7.40;;;3.20;;
5303;SDS011;2674;49.722;10.892;2022-08-30T15:50:15;6.47;;;3.17;;
5303;SDS011;2674;49.722;10.892;2022-08-30T15:52:41;6.47;;;2.57;;
5303;SDS011;2674;49.722;10.892;2022-08-30T15:55:07;3.33;;;3.03;;
5303;SDS011;2674;49.722;10.892;2022-08-30T15:57:34;3.97;;;2.43;;
5303;SDS011;2674;49.722;10.892;2022-08-30T16:00:00;10.60;;;3.00;;
5303;SDS011;2674;49.722;10.892;2022-08-30T16:02:26;5.20;;;2.90;;
5303;SDS011;2674;49.722;10.892;2022-08-30T16:04:52;3.73;;;3.17;;
5303;SDS011;2674;49.722;10.892;2022-08-30T16:07:17;3.23;;;2.60;;
5303;SDS011;2674;49.722;10.892;2022-08-30T16:09:43;5.90;;;3.33;;
5303;SDS011;2674;49.722;10.892;2022-08-30T16:12:09;7.17;;;3.20;;
5303;SDS011;2674;49.722;10.892;2022-08-30T16:14:35;7.40;;;2.87;;
5303;SDS011;2674;49.722;10.892;2022-08-30T16:17:01;3.17;;;2.90;;
5303;SDS011;2674;49.722;10.892;2022-08-30T16:19:28;3.50;;;2.73;;
5303;SDS011;2674;49.722;10.892;2022-08-30T16:21:54;3.33;;;2.50;;
5303;SDS011;2674;49.722;10.892;2022-08-30T16:24:20;4.23;;;2.73;;
5303;SDS011;2674;49.722;10.892;2022-08-30T16:26:47;7.20;;;3.20;;
5303;SDS011;2674;49.722;10.892;2022-08-30T16:29:13;6.87;;;2.83;;
5303;SDS011;2674;49.722;10.892;2022-08-30T16:31:39;3.47;;;3.17;;
5303;SDS011;2674;49.722;10.892;2022-08-30T16:34:08;6.00;;;2.50;;
5303;SDS011;2674;49.722;10.892;2022-08-30T16:36:34;4.37;;;3.07;;
5303;SDS011;2674;49.722;10.892;2022-08-30T16:39:00;5.83;;;2.80;;
5303;SDS011;2674;49.722;10.892;2022-08-30T16:41:28;6.70;;;2.80;;
5303;SDS011;2674;49.722;10.892;2022-08-30T16:43:54;4.00;;;3.20;;
5303;SDS011;2674;49.722;10.892;2022-08-30T16:46:21;4.17;;;3.40;;
5303;SDS011;2674;49.722;10.892;2022-08-30T16:48:48;4.40;;;2.70;;
5303;SDS011;2674;49.722;10.892;2022-08-30T16:51:15;4.73;;;2.70;;
5303;SDS011;2674;49.722;10.892;2022-08-30T16:53:43;3.73;;;2.47;;
5303;SDS011;2674;49.722;10.892;2022-08-30T16:56:12;6.43;;;2.80;;
5303;SDS011;2674;49.722;10.892;2022-08-30T16:58:43;60.70;;;8.40;;